Wetterdaten: Woche 23.06.14 - 29.06.14 (KW26)
Datum Zeit Temp. A. Feuchte A. Luftdruck Regen Wind Richtung Sonnenschein ET UV Solar Taupunkt Windchill Windben
23.06.2014 00:00 8,9 C 88 % 1020,7 hPa 0,0 l/m 0,0 km/h (0 Bft) N 0,00 h 0,000 mm 0,0 UV-I 0 W/m 7,0 C 8,9 C 0,0 km/h (0 Bft)
23.06.2014 01:00 7,8 C 90 % 1020,8 hPa 0,0 l/m 0,1 km/h (0 Bft) O 0,00 h 0,000 mm 0,0 UV-I 0 W/m 6,3 C 7,8 C 0,5 km/h (0 Bft)
23.06.2014 02:00 7,2 C 91 % 1020,9 hPa 0,0 l/m 0,3 km/h (0 Bft) O 0,00 h 0,000 mm 0,0 UV-I 0 W/m 5,8 C 7,2 C 1,0 km/h (0 Bft)
23.06.2014 03:00 6,3 C 92 % 1020,8 hPa 0,0 l/m 0,2 km/h (0 Bft) O-NO 0,00 h 0,000 mm 0,0 UV-I 0 W/m 5,2 C 6,3 C 0,8 km/h (0 Bft)
23.06.2014 04:00 5,7 C 93 % 1020,8 hPa 0,0 l/m 0,0 km/h (0 Bft) O-NO 0,00 h 0,000 mm 0,0 UV-I 0 W/m 4,7 C 5,7 C 0,2 km/h (0 Bft)
23.06.2014 05:00 5,4 C 93 % 1020,9 hPa 0,0 l/m 0,0 km/h (0 Bft) O 0,00 h 0,000 mm 0,0 UV-I 11 W/m 4,4 C 5,4 C 0,1 km/h (0 Bft)
23.06.2014 06:00 6,2 C 93 % 1021,1 hPa 0,0 l/m 0,1 km/h (0 Bft) SO 0,00 h 0,000 mm 0,0 UV-I 23 W/m 5,1 C 6,2 C 0,4 km/h (0 Bft)
23.06.2014 07:00 9,4 C 86 % 1021,0 hPa 0,0 l/m 0,3 km/h (0 Bft) N-NW 0,53 h 0,000 mm 1,0 UV-I 180 W/m 7,2 C 9,4 C 1,0 km/h (0 Bft)
23.06.2014 08:00 12,8 C 77 % 1021,1 hPa 0,0 l/m 1,1 km/h (1 Bft) N 1,00 h 0,076 mm 1,9 UV-I 468 W/m 8,8 C 12,8 C 2,7 km/h (1 Bft)
23.06.2014 09:00 14,5 C 69 % 1020,8 hPa 0,0 l/m 2,3 km/h (1 Bft) N 1,00 h 0,229 mm 2,6 UV-I 406 W/m 8,8 C 14,5 C 4,6 km/h (1 Bft)
23.06.2014 10:00 16,3 C 62 % 1020,7 hPa 0,0 l/m 3,6 km/h (1 Bft) NW 1,00 h 0,229 mm 4,1 UV-I 509 W/m 9,0 C 16,2 C 6,6 km/h (2 Bft)
23.06.2014 11:00 18,1 C 56 % 1020,1 hPa 0,0 l/m 4,0 km/h (1 Bft) W-NW 1,00 h 0,330 mm 6,1 UV-I 799 W/m 9,2 C 18,0 C 6,7 km/h (2 Bft)
23.06.2014 12:00 19,5 C 53 % 1019,6 hPa 0,0 l/m 6,0 km/h (2 Bft) N 1,00 h 0,483 mm 6,6 UV-I 796 W/m 9,6 C 19,2 C 9,8 km/h (2 Bft)
23.06.2014 13:00 20,7 C 49 % 1019,1 hPa 0,0 l/m 4,5 km/h (1 Bft) N 1,00 h 0,533 mm 7,1 UV-I 880 W/m 9,5 C 20,5 C 7,8 km/h (2 Bft)
23.06.2014 14:00 22,0 C 44 % 1018,6 hPa 0,0 l/m 5,1 km/h (1 Bft) N 1,00 h 0,533 mm 6,9 UV-I 907 W/m 9,2 C 21,8 C 8,8 km/h (2 Bft)
23.06.2014 15:00 21,3 C 44 % 1017,9 hPa 0,0 l/m 4,3 km/h (1 Bft) S-SO 1,00 h 0,584 mm 3,9 UV-I 427 W/m 8,6 C 21,2 C 7,1 km/h (2 Bft)
23.06.2014 16:00 21,3 C 45 % 1017,5 hPa 0,0 l/m 6,2 km/h (2 Bft) N 1,00 h 0,305 mm 3,0 UV-I 336 W/m 8,7 C 20,9 C 9,8 km/h (2 Bft)
23.06.2014 17:00 21,7 C 43 % 1016,9 hPa 0,0 l/m 7,2 km/h (2 Bft) N 1,00 h 0,279 mm 2,2 UV-I 369 W/m 8,6 C 21,3 C 11,4 km/h (2 Bft)
23.06.2014 18:00 20,6 C 46 % 1016,6 hPa 0,0 l/m 9,0 km/h (2 Bft) N-NO 1,00 h 0,279 mm 1,0 UV-I 103 W/m 8,6 C 19,6 C 13,6 km/h (3 Bft)
23.06.2014 19:00 19,2 C 50 % 1016,8 hPa 0,0 l/m 10,3 km/h (2 Bft) N-NO 0,77 h 0,127 mm 0,6 UV-I 68 W/m 8,4 C 17,8 C 16,3 km/h (3 Bft)
23.06.2014 20:00 17,6 C 53 % 1017,1 hPa 0,0 l/m 7,7 km/h (2 Bft) N 0,00 h 0,127 mm 0,0 UV-I 31 W/m 7,9 C 17,0 C 11,7 km/h (2 Bft)
23.06.2014 21:00 16,1 C 57 % 1017,4 hPa 0,0 l/m 6,8 km/h (2 Bft) N 0,00 h 0,076 mm 0,0 UV-I 8 W/m 7,4 C 15,7 C 10,2 km/h (2 Bft)
23.06.2014 22:00 14,6 C 60 % 1017,6 hPa 0,0 l/m 6,4 km/h (2 Bft) N 0,00 h 0,051 mm 0,0 UV-I 0 W/m 7,0 C 14,2 C 9,9 km/h (2 Bft)
23.06.2014 23:00 13,3 C 65 % 1017,7 hPa 0,0 l/m 2,5 km/h (1 Bft) N 0,00 h 0,052 mm 0,0 UV-I 0 W/m 7,0 C 13,3 C 4,6 km/h (1 Bft)
24.06.2014 00:00 12,8 C 68 % 1017,8 hPa 0,0 l/m 3,2 km/h (1 Bft) N 0,00 h 0,025 mm 0,0 UV-I 0 W/m 7,0 C 12,7 C 5,2 km/h (1 Bft)
24.06.2014 01:00 12,2 C 70 % 1017,6 hPa 0,0 l/m 3,9 km/h (1 Bft) N 0,00 h 0,025 mm 0,0 UV-I 0 W/m 7,0 C 12,2 C 6,0 km/h (2 Bft)
24.06.2014 02:00 11,2 C 75 % 1017,2 hPa 0,0 l/m 2,7 km/h (1 Bft) N 0,00 h 0,025 mm 0,0 UV-I 0 W/m 6,9 C 11,2 C 4,2 km/h (1 Bft)
24.06.2014 03:00 10,7 C 77 % 1016,8 hPa 0,0 l/m 1,0 km/h (0 Bft) N-NO 0,00 h 0,025 mm 0,0 UV-I 0 W/m 6,9 C 10,7 C 2,3 km/h (1 Bft)
24.06.2014 04:00 10,3 C 80 % 1016,7 hPa 0,0 l/m 0,0 km/h (0 Bft) N 0,00 h 0,000 mm 0,0 UV-I 5 W/m 6,9 C 10,3 C 0,2 km/h (0 Bft)
24.06.2014 05:00 10,0 C 82 % 1016,6 hPa 0,0 l/m 0,5 km/h (0 Bft) N 0,00 h 0,000 mm 0,0 UV-I 16 W/m 7,1 C 10,0 C 1,1 km/h (0 Bft)
24.06.2014 06:00 10,2 C 80 % 1016,7 hPa 0,0 l/m 2,1 km/h (1 Bft) N 0,00 h 0,000 mm 0,0 UV-I 38 W/m 7,0 C 10,2 C 3,9 km/h (1 Bft)
24.06.2014 07:00 12,1 C 74 % 1016,9 hPa 0,0 l/m 4,7 km/h (1 Bft) N 0,53 h 0,025 mm 1,1 UV-I 195 W/m 7,6 C 12,0 C 6,9 km/h (2 Bft)
24.06.2014 08:00 14,6 C 65 % 1016,8 hPa 0,0 l/m 4,6 km/h (1 Bft) N-NO 1,00 h 0,102 mm 1,9 UV-I 468 W/m 8,1 C 14,4 C 7,6 km/h (2 Bft)
24.06.2014 09:00 16,5 C 58 % 1016,7 hPa 0,0 l/m 3,7 km/h (1 Bft) N-NO 1,00 h 0,254 mm 3,4 UV-I 631 W/m 8,2 C 16,5 C 6,4 km/h (2 Bft)
24.06.2014 10:00 18,4 C 52 % 1016,6 hPa 0,0 l/m 4,0 km/h (1 Bft) N-NO 1,00 h 0,356 mm 4,8 UV-I 763 W/m 8,4 C 18,2 C 7,5 km/h (2 Bft)
24.06.2014 11:00 19,4 C 49 % 1016,2 hPa 0,0 l/m 3,0 km/h (1 Bft) NO 1,00 h 0,457 mm 5,9 UV-I 833 W/m 8,2 C 19,3 C 5,6 km/h (1 Bft)
24.06.2014 12:00 19,1 C 47 % 1015,8 hPa 0,0 l/m 4,7 km/h (1 Bft) N 1,00 h 0,483 mm 3,9 UV-I 394 W/m 7,6 C 18,8 C 7,7 km/h (2 Bft)
24.06.2014 13:00 19,8 C 46 % 1015,5 hPa 0,0 l/m 3,7 km/h (1 Bft) N 1,00 h 0,254 mm 4,2 UV-I 441 W/m 7,9 C 19,7 C 6,2 km/h (2 Bft)
24.06.2014 14:00 20,9 C 44 % 1015,1 hPa 0,0 l/m 5,4 km/h (1 Bft) N 1,00 h 0,305 mm 5,0 UV-I 700 W/m 8,1 C 20,6 C 8,8 km/h (2 Bft)
24.06.2014 15:00 22,1 C 43 % 1014,5 hPa 0,0 l/m 6,5 km/h (2 Bft) N-NO 1,00 h 0,432 mm 4,4 UV-I 671 W/m 8,7 C 21,7 C 10,2 km/h (2 Bft)
24.06.2014 16:00 21,6 C 42 % 1014,1 hPa 0,0 l/m 5,3 km/h (1 Bft) W-NW 1,00 h 0,432 mm 3,3 UV-I 548 W/m 8,2 C 21,3 C 8,5 km/h (2 Bft)
24.06.2014 17:00 20,4 C 44 % 1013,5 hPa 0,0 l/m 3,3 km/h (1 Bft) NW 1,00 h 0,356 mm 1,7 UV-I 238 W/m 7,8 C 20,4 C 5,9 km/h (2 Bft)
24.06.2014 18:00 20,2 C 44 % 1012,9 hPa 0,0 l/m 2,7 km/h (1 Bft) W-NW 1,00 h 0,178 mm 1,0 UV-I 156 W/m 7,7 C 20,2 C 5,3 km/h (1 Bft)
24.06.2014 19:00 20,0 C 44 % 1012,6 hPa 0,0 l/m 4,3 km/h (1 Bft) NW 0,87 h 0,127 mm 0,6 UV-I 77 W/m 7,5 C 19,9 C 6,8 km/h (2 Bft)
24.06.2014 20:00 18,8 C 49 % 1012,5 hPa 0,0 l/m 6,1 km/h (2 Bft) N-NO 0,25 h 0,076 mm 0,0 UV-I 32 W/m 8,0 C 18,4 C 9,5 km/h (2 Bft)
24.06.2014 21:00 15,4 C 64 % 1013,0 hPa 0,0 l/m 8,2 km/h (2 Bft) N 0,00 h 0,076 mm 0,0 UV-I 8 W/m 8,7 C 14,0 C 12,7 km/h (3 Bft)
24.06.2014 22:00 13,8 C 73 % 1013,1 hPa 0,0 l/m 1,8 km/h (1 Bft) N 0,00 h 0,051 mm 0,0 UV-I 0 W/m 9,0 C 13,8 C 3,4 km/h (1 Bft)
24.06.2014 23:00 13,8 C 74 % 1012,8 hPa 0,0 l/m 3,2 km/h (1 Bft) N 0,00 h 0,025 mm 0,0 UV-I 0 W/m 9,2 C 13,7 C 5,2 km/h (1 Bft)
25.06.2014 00:00 13,0 C 77 % 1012,4 hPa 0,0 l/m 3,1 km/h (1 Bft) N 0,00 h 0,025 mm 0,0 UV-I 0 W/m 9,0 C 13,0 C 5,0 km/h (1 Bft)
25.06.2014 01:00 12,4 C 80 % 1011,5 hPa 0,0 l/m 0,9 km/h (0 Bft) N-NO 0,00 h 0,025 mm 0,0 UV-I 0 W/m 9,0 C 12,4 C 1,9 km/h (1 Bft)
25.06.2014 02:00 11,9 C 88 % 1011,3 hPa 0,8 l/m 1,9 km/h (1 Bft) N 0,00 h 0,025 mm 0,0 UV-I 0 W/m 10,0 C 11,9 C 3,4 km/h (1 Bft)
25.06.2014 03:00 11,3 C 93 % 1011,0 hPa 0,0 l/m 0,3 km/h (0 Bft) N 0,00 h 0,000 mm 0,0 UV-I 0 W/m 10,2 C 11,3 C 1,2 km/h (1 Bft)
25.06.2014 04:00 11,2 C 94 % 1010,4 hPa 0,0 l/m 0,4 km/h (0 Bft) N-NO 0,00 h 0,000 mm 0,0 UV-I 0 W/m 10,2 C 11,2 C 1,5 km/h (1 Bft)
25.06.2014 05:00 10,5 C 95 % 1009,9 hPa 0,0 l/m 0,2 km/h (0 Bft) O 0,00 h 0,000 mm 0,0 UV-I 20 W/m 9,6 C 10,5 C 0,6 km/h (0 Bft)
25.06.2014 06:00 10,8 C 94 % 1009,5 hPa 0,0 l/m 1,3 km/h (1 Bft) O-NO 0,33 h 0,000 mm 0,0 UV-I 48 W/m 9,9 C 10,8 C 3,1 km/h (1 Bft)
25.06.2014 07:00 12,2 C 89 % 1009,0 hPa 0,0 l/m 1,3 km/h (1 Bft) O-NO 0,92 h 0,025 mm 0,7 UV-I 170 W/m 10,4 C 12,2 C 2,7 km/h (1 Bft)
25.06.2014 08:00 13,7 C 83 % 1008,9 hPa 0,0 l/m 0,4 km/h (0 Bft) O 1,00 h 0,076 mm 1,2 UV-I 229 W/m 10,8 C 13,7 C 1,4 km/h (1 Bft)
25.06.2014 09:00 15,1 C 77 % 1008,8 hPa 0,0 l/m 1,1 km/h (1 Bft) W 1,00 h 0,127 mm 2,1 UV-I 356 W/m 11,1 C 15,1 C 2,7 km/h (1 Bft)
25.06.2014 10:00 14,9 C 79 % 1008,7 hPa 5,8 l/m 6,5 km/h (2 Bft) N 0,53 h 0,203 mm 2,1 UV-I 225 W/m 11,3 C 14,0 C 9,7 km/h (2 Bft)
25.06.2014 11:00 12,8 C 92 % 1009,3 hPa 1,6 l/m 6,6 km/h (2 Bft) N-NW 0,60 h 0,127 mm 1,7 UV-I 110 W/m 11,5 C 12,0 C 11,0 km/h (2 Bft)
25.06.2014 12:00 14,3 C 85 % 1009,5 hPa 0,2 l/m 11,4 km/h (2 Bft) N 1,00 h 0,051 mm 4,0 UV-I 420 W/m 11,7 C 11,8 C 18,2 km/h (3 Bft)
25.06.2014 13:00 15,6 C 73 % 1009,6 hPa 0,0 l/m 11,6 km/h (2 Bft) N 1,00 h 0,254 mm 5,0 UV-I 561 W/m 10,7 C 13,3 C 18,0 km/h (3 Bft)
25.06.2014 14:00 15,8 C 66 % 1009,4 hPa 0,0 l/m 10,7 km/h (2 Bft) N 1,00 h 0,356 mm 4,1 UV-I 400 W/m 9,5 C 13,8 C 16,4 km/h (3 Bft)
25.06.2014 15:00 16,8 C 60 % 1009,1 hPa 0,0 l/m 10,2 km/h (2 Bft) N 1,00 h 0,305 mm 3,6 UV-I 442 W/m 9,1 C 15,0 C 15,7 km/h (3 Bft)
25.06.2014 16:00 15,0 C 61 % 1009,9 hPa 0,0 l/m 15,5 km/h (3 Bft) N-NW 1,00 h 0,279 mm 1,3 UV-I 149 W/m 7,6 C 11,2 C 23,3 km/h (4 Bft)
25.06.2014 17:00 14,9 C 62 % 1010,3 hPa 0,0 l/m 10,5 km/h (2 Bft) N 1,00 h 0,152 mm 1,5 UV-I 232 W/m 7,7 C 12,9 C 16,0 km/h (3 Bft)
25.06.2014 18:00 14,7 C 63 % 1010,7 hPa 0,0 l/m 13,1 km/h (3 Bft) N 0,87 h 0,178 mm 1,0 UV-I 107 W/m 7,7 C 11,6 C 19,6 km/h (3 Bft)
25.06.2014 19:00 13,6 C 65 % 1011,3 hPa 0,0 l/m 12,0 km/h (2 Bft) N 0,27 h 0,127 mm 0,6 UV-I 45 W/m 7,0 C 10,7 C 17,6 km/h (3 Bft)
25.06.2014 20:00 12,3 C 68 % 1012,1 hPa 0,0 l/m 7,6 km/h (2 Bft) N 0,00 h 0,076 mm 0,0 UV-I 18 W/m 6,6 C 11,2 C 12,1 km/h (2 Bft)
25.06.2014 21:00 10,8 C 75 % 1012,8 hPa 0,0 l/m 2,2 km/h (1 Bft) N-NO 0,00 h 0,051 mm 0,0 UV-I 6 W/m 6,5 C 10,8 C 4,2 km/h (1 Bft)
25.06.2014 22:00 10,0 C 81 % 1013,5 hPa 0,0 l/m 1,2 km/h (1 Bft) N-NO 0,00 h 0,000 mm 0,0 UV-I 0 W/m 6,9 C 10,0 C 2,5 km/h (1 Bft)
25.06.2014 23:00 10,0 C 84 % 1013,8 hPa 0,0 l/m 2,5 km/h (1 Bft) NW 0,00 h 0,025 mm 0,0 UV-I 0 W/m 7,4 C 10,0 C 4,6 km/h (1 Bft)
26.06.2014 00:00 8,9 C 88 % 1014,1 hPa 0,0 l/m 1,4 km/h (1 Bft) N 0,00 h 0,025 mm 0,0 UV-I 0 W/m 7,0 C 8,9 C 2,9 km/h (1 Bft)
26.06.2014 01:00 7,8 C 91 % 1014,4 hPa 0,0 l/m 1,0 km/h (0 Bft) N-NO 0,00 h 0,000 mm 0,0 UV-I 0 W/m 6,4 C 7,8 C 1,9 km/h (1 Bft)
26.06.2014 02:00 7,7 C 92 % 1014,7 hPa 0,0 l/m 0,9 km/h (0 Bft) N-NO 0,00 h 0,000 mm 0,0 UV-I 0 W/m 6,4 C 7,7 C 1,9 km/h (1 Bft)
26.06.2014 03:00 6,7 C 93 % 1014,9 hPa 0,0 l/m 0,4 km/h (0 Bft) S-SW 0,00 h 0,000 mm 0,0 UV-I 0 W/m 5,7 C 6,7 C 1,2 km/h (1 Bft)
26.06.2014 04:00 6,1 C 94 % 1015,1 hPa 0,0 l/m 0,3 km/h (0 Bft) S-SO 0,00 h 0,000 mm 0,0 UV-I 0 W/m 5,3 C 6,1 C 0,9 km/h (0 Bft)
26.06.2014 05:00 5,3 C 95 % 1015,4 hPa 0,0 l/m 0,3 km/h (0 Bft) O-NO 0,00 h 0,000 mm 0,0 UV-I 10 W/m 4,5 C 5,3 C 0,8 km/h (0 Bft)
26.06.2014 06:00 5,7 C 95 % 1015,6 hPa 0,0 l/m 0,6 km/h (0 Bft) O 0,00 h 0,000 mm 0,0 UV-I 27 W/m 5,0 C 5,7 C 2,0 km/h (1 Bft)
26.06.2014 07:00 8,4 C 92 % 1015,7 hPa 0,0 l/m 0,8 km/h (0 Bft) N-NO 0,53 h 0,000 mm 1,1 UV-I 177 W/m 7,1 C 8,4 C 2,0 km/h (1 Bft)
26.06.2014 08:00 11,8 C 83 % 1015,6 hPa 0,0 l/m 3,1 km/h (1 Bft) N-NO 1,00 h 0,076 mm 1,8 UV-I 376 W/m 8,9 C 11,8 C 5,7 km/h (1 Bft)
26.06.2014 09:00 14,1 C 72 % 1015,5 hPa 0,0 l/m 2,0 km/h (1 Bft) O-NO 1,00 h 0,203 mm 3,0 UV-I 505 W/m 9,1 C 14,1 C 4,5 km/h (1 Bft)
26.06.2014 10:00 15,9 C 60 % 1015,4 hPa 0,0 l/m 7,2 km/h (2 Bft) O-SO 1,00 h 0,254 mm 4,4 UV-I 604 W/m 8,0 C 15,1 C 12,6 km/h (3 Bft)
26.06.2014 11:00 15,9 C 59 % 1015,5 hPa 0,0 l/m 8,1 km/h (2 Bft) SO 1,00 h 0,356 mm 4,8 UV-I 480 W/m 7,8 C 14,8 C 13,5 km/h (3 Bft)
26.06.2014 12:00 17,4 C 54 % 1015,0 hPa 0,0 l/m 7,9 km/h (2 Bft) SO 1,00 h 0,330 mm 6,5 UV-I 764 W/m 7,9 C 16,6 C 14,0 km/h (3 Bft)
26.06.2014 13:00 17,1 C 53 % 1014,7 hPa 0,0 l/m 7,7 km/h (2 Bft) SO 1,00 h 0,457 mm 4,1 UV-I 417 W/m 7,3 C 16,2 C 12,8 km/h (3 Bft)
26.06.2014 14:00 17,0 C 52 % 1014,6 hPa 0,0 l/m 7,5 km/h (2 Bft) SO 1,00 h 0,279 mm 3,0 UV-I 302 W/m 7,1 C 16,1 C 11,9 km/h (2 Bft)
26.06.2014 15:00 17,7 C 52 % 1014,5 hPa 0,0 l/m 3,7 km/h (1 Bft) SO 1,00 h 0,203 mm 3,3 UV-I 383 W/m 7,6 C 17,6 C 6,8 km/h (2 Bft)
26.06.2014 16:00 18,0 C 51 % 1014,2 hPa 0,0 l/m 5,4 km/h (1 Bft) SO 1,00 h 0,254 mm 2,5 UV-I 325 W/m 7,7 C 17,9 C 8,6 km/h (2 Bft)
26.06.2014 17:00 18,2 C 52 % 1014,0 hPa 0,0 l/m 4,2 km/h (1 Bft) SO 1,00 h 0,203 mm 1,8 UV-I 291 W/m 8,2 C 18,0 C 8,0 km/h (2 Bft)
26.06.2014 18:00 17,8 C 54 % 1013,9 hPa 0,0 l/m 4,3 km/h (1 Bft) O-NO 1,00 h 0,203 mm 0,9 UV-I 111 W/m 8,4 C 17,6 C 8,0 km/h (2 Bft)
26.06.2014 19:00 17,3 C 56 % 1014,2 hPa 0,0 l/m 4,4 km/h (1 Bft) SO 0,43 h 0,102 mm 0,6 UV-I 66 W/m 8,4 C 17,2 C 8,4 km/h (2 Bft)
26.06.2014 20:00 16,2 C 60 % 1014,3 hPa 0,0 l/m 2,4 km/h (1 Bft) SO 0,00 h 0,076 mm 0,0 UV-I 22 W/m 8,4 C 16,2 C 4,9 km/h (1 Bft)
26.06.2014 21:00 14,7 C 65 % 1014,7 hPa 0,0 l/m 1,3 km/h (1 Bft) O 0,00 h 0,025 mm 0,0 UV-I 7 W/m 8,3 C 14,7 C 3,1 km/h (1 Bft)
26.06.2014 22:00 13,0 C 72 % 1015,2 hPa 0,0 l/m 1,8 km/h (1 Bft) O 0,00 h 0,025 mm 0,0 UV-I 0 W/m 8,1 C 13,0 C 4,0 km/h (1 Bft)
26.06.2014 23:00 12,4 C 74 % 1015,5 hPa 0,0 l/m 2,0 km/h (1 Bft) O-NO 0,00 h 0,025 mm 0,0 UV-I 0 W/m 7,9 C 12,4 C 4,5 km/h (1 Bft)
27.06.2014 00:00 11,4 C 78 % 1015,8 hPa 0,0 l/m 2,7 km/h (1 Bft) N 0,00 h 0,025 mm 0,0 UV-I 0 W/m 7,7 C 11,4 C 5,3 km/h (1 Bft)
27.06.2014 01:00 11,0 C 80 % 1015,8 hPa 0,0 l/m 3,4 km/h (1 Bft) O 0,00 h 0,025 mm 0,0 UV-I 0 W/m 7,7 C 11,0 C 7,3 km/h (2 Bft)
27.06.2014 02:00 9,8 C 84 % 1015,5 hPa 0,0 l/m 1,6 km/h (1 Bft) O-NO 0,00 h 0,025 mm 0,0 UV-I 0 W/m 7,2 C 9,8 C 3,6 km/h (1 Bft)
27.06.2014 03:00 8,9 C 88 % 1015,3 hPa 0,0 l/m 1,9 km/h (1 Bft) O-NO 0,00 h 0,025 mm 0,0 UV-I 0 W/m 7,0 C 8,9 C 4,5 km/h (1 Bft)
27.06.2014 04:00 8,0 C 91 % 1015,6 hPa 0,0 l/m 0,4 km/h (0 Bft) NW 0,00 h 0,000 mm 0,0 UV-I 0 W/m 6,6 C 8,0 C 1,4 km/h (1 Bft)
27.06.2014 05:00 8,1 C 92 % 1015,9 hPa 0,0 l/m 0,8 km/h (0 Bft) W-NW 0,00 h 0,000 mm 0,0 UV-I 20 W/m 6,9 C 8,1 C 2,0 km/h (1 Bft)
27.06.2014 06:00 8,9 C 91 % 1016,3 hPa 0,0 l/m 0,6 km/h (0 Bft) SO 0,60 h 0,000 mm 0,5 UV-I 63 W/m 7,6 C 8,9 C 1,4 km/h (1 Bft)
27.06.2014 07:00 11,5 C 86 % 1016,2 hPa 0,0 l/m 0,5 km/h (0 Bft) W 1,00 h 0,025 mm 0,7 UV-I 140 W/m 9,2 C 11,5 C 1,4 km/h (1 Bft)
27.06.2014 08:00 14,1 C 79 % 1016,3 hPa 0,0 l/m 0,3 km/h (0 Bft) W 1,00 h 0,076 mm 1,3 UV-I 227 W/m 10,5 C 14,1 C 1,1 km/h (1 Bft)
27.06.2014 09:00 16,8 C 67 % 1016,3 hPa 0,0 l/m 1,3 km/h (1 Bft) S-SO 1,00 h 0,127 mm 2,9 UV-I 593 W/m 10,5 C 16,8 C 3,0 km/h (1 Bft)
27.06.2014 10:00 19,2 C 55 % 1016,1 hPa 0,0 l/m 5,2 km/h (1 Bft) SW 1,00 h 0,305 mm 4,5 UV-I 731 W/m 9,8 C 19,0 C 8,6 km/h (2 Bft)
27.06.2014 11:00 20,6 C 46 % 1016,1 hPa 0,0 l/m 7,1 km/h (2 Bft) W 1,00 h 0,432 mm 5,8 UV-I 749 W/m 8,6 C 20,1 C 11,2 km/h (2 Bft)
27.06.2014 12:00 21,6 C 43 % 1015,9 hPa 0,0 l/m 6,3 km/h (2 Bft) S 1,00 h 0,508 mm 6,3 UV-I 811 W/m 8,4 C 21,3 C 10,3 km/h (2 Bft)
27.06.2014 13:00 22,4 C 37 % 1015,6 hPa 0,0 l/m 7,5 km/h (2 Bft) W-SW 1,00 h 0,508 mm 6,2 UV-I 756 W/m 6,8 C 21,8 C 11,8 km/h (2 Bft)
27.06.2014 14:00 23,4 C 31 % 1015,3 hPa 0,0 l/m 6,4 km/h (2 Bft) W 1,00 h 0,533 mm 6,0 UV-I 821 W/m 5,4 C 23,0 C 10,8 km/h (2 Bft)
27.06.2014 15:00 23,8 C 29 % 1015,0 hPa 0,0 l/m 8,7 km/h (2 Bft) W 1,00 h 0,533 mm 5,2 UV-I 750 W/m 4,8 C 23,1 C 13,5 km/h (3 Bft)
27.06.2014 16:00 24,1 C 27 % 1014,8 hPa 0,0 l/m 7,8 km/h (2 Bft) SW 1,00 h 0,533 mm 3,8 UV-I 633 W/m 4,1 C 23,6 C 13,2 km/h (3 Bft)
27.06.2014 17:00 23,8 C 28 % 1014,6 hPa 0,0 l/m 8,3 km/h (2 Bft) W-SW 1,00 h 0,483 mm 2,2 UV-I 388 W/m 4,3 C 23,1 C 12,1 km/h (2 Bft)
27.06.2014 18:00 22,8 C 31 % 1014,2 hPa 0,0 l/m 5,2 km/h (1 Bft) W 1,00 h 0,330 mm 1,0 UV-I 92 W/m 4,6 C 22,7 C 8,1 km/h (2 Bft)
27.06.2014 19:00 22,1 C 33 % 1014,3 hPa 0,0 l/m 2,4 km/h (1 Bft) W-NW 1,00 h 0,127 mm 0,5 UV-I 74 W/m 5,2 C 22,1 C 4,2 km/h (1 Bft)
27.06.2014 20:00 20,7 C 40 % 1014,2 hPa 0,0 l/m 0,7 km/h (0 Bft) O 0,20 h 0,076 mm 0,0 UV-I 32 W/m 6,5 C 20,7 C 1,6 km/h (1 Bft)
27.06.2014 21:00 18,4 C 54 % 1014,3 hPa 0,0 l/m 1,3 km/h (1 Bft) O-SO 0,00 h 0,025 mm 0,0 UV-I 10 W/m 8,9 C 18,4 C 2,7 km/h (1 Bft)
27.06.2014 22:00 16,3 C 63 % 1014,4 hPa 0,0 l/m 2,6 km/h (1 Bft) O 0,00 h 0,025 mm 0,0 UV-I 0 W/m 9,3 C 16,3 C 4,4 km/h (1 Bft)
27.06.2014 23:00 15,0 C 70 % 1014,3 hPa 0,0 l/m 0,4 km/h (0 Bft) O 0,00 h 0,051 mm 0,0 UV-I 0 W/m 9,5 C 15,0 C 1,4 km/h (1 Bft)
28.06.2014 00:00 14,1 C 74 % 1014,2 hPa 0,0 l/m 0,0 km/h (0 Bft) N 0,00 h 0,025 mm 0,0 UV-I 0 W/m 9,5 C 14,1 C 0,0 km/h (0 Bft)
28.06.2014 01:00 13,2 C 76 % 1013,9 hPa 0,0 l/m 0,2 km/h (0 Bft) N 0,00 h 0,025 mm 0,0 UV-I 0 W/m 9,1 C 13,2 C 0,6 km/h (0 Bft)
28.06.2014 02:00 12,2 C 82 % 1013,8 hPa 0,0 l/m 0,0 km/h (0 Bft) N 0,00 h 0,025 mm 0,0 UV-I 0 W/m 9,2 C 12,2 C 0,3 km/h (0 Bft)
28.06.2014 03:00 11,8 C 82 % 1013,5 hPa 0,0 l/m 0,1 km/h (0 Bft) O-SO 0,00 h 0,025 mm 0,0 UV-I 0 W/m 8,9 C 11,8 C 0,6 km/h (0 Bft)
28.06.2014 04:00 12,1 C 83 % 1014,4 hPa 0,6 l/m 5,0 km/h (1 Bft) W-NW 0,00 h 0,000 mm 0,0 UV-I 0 W/m 9,2 C 11,3 C 7,7 km/h (2 Bft)
28.06.2014 05:00 11,8 C 90 % 1014,5 hPa 0,2 l/m 3,3 km/h (1 Bft) O-NO 0,00 h 0,025 mm 0,0 UV-I 17 W/m 10,3 C 11,7 C 5,9 km/h (2 Bft)
28.06.2014 06:00 11,8 C 92 % 1014,0 hPa 0,0 l/m 0,1 km/h (0 Bft) SO 0,55 h 0,000 mm 0,0 UV-I 54 W/m 10,6 C 11,8 C 1,0 km/h (0 Bft)
28.06.2014 07:00 13,0 C 92 % 1013,7 hPa 0,0 l/m 0,0 km/h (0 Bft) S-SW 1,00 h 0,025 mm 0,6 UV-I 118 W/m 11,6 C 13,0 C 0,4 km/h (0 Bft)
28.06.2014 08:00 14,5 C 88 % 1013,7 hPa 0,0 l/m 0,8 km/h (0 Bft) S-SO 1,00 h 0,051 mm 1,2 UV-I 230 W/m 12,6 C 14,5 C 2,2 km/h (1 Bft)
28.06.2014 09:00 16,9 C 79 % 1013,6 hPa 0,0 l/m 4,0 km/h (1 Bft) S 1,00 h 0,127 mm 2,4 UV-I 413 W/m 13,2 C 16,8 C 6,5 km/h (2 Bft)
28.06.2014 10:00 18,9 C 71 % 1013,4 hPa 0,0 l/m 6,8 km/h (2 Bft) W-SW 1,00 h 0,229 mm 4,2 UV-I 592 W/m 13,5 C 18,4 C 10,9 km/h (2 Bft)
28.06.2014 11:00 20,6 C 61 % 1013,3 hPa 0,0 l/m 8,4 km/h (2 Bft) W-SW 1,00 h 0,356 mm 5,5 UV-I 684 W/m 12,9 C 19,8 C 12,7 km/h (3 Bft)
28.06.2014 12:00 21,0 C 57 % 1012,8 hPa 0,0 l/m 7,1 km/h (2 Bft) W-SW 1,00 h 0,432 mm 4,2 UV-I 474 W/m 12,1 C 20,5 C 11,5 km/h (2 Bft)
28.06.2014 13:00 22,8 C 49 % 1012,4 hPa 0,0 l/m 9,1 km/h (2 Bft) S 1,00 h 0,330 mm 6,8 UV-I 843 W/m 11,4 C 22,0 C 14,6 km/h (3 Bft)
28.06.2014 14:00 23,8 C 45 % 1011,6 hPa 0,0 l/m 8,1 km/h (2 Bft) W-SW 1,00 h 0,559 mm 6,0 UV-I 754 W/m 11,0 C 23,2 C 12,9 km/h (3 Bft)
28.06.2014 15:00 23,8 C 42 % 1010,9 hPa 0,0 l/m 8,2 km/h (2 Bft) S 1,00 h 0,508 mm 3,5 UV-I 424 W/m 10,1 C 23,2 C 12,7 km/h (3 Bft)
28.06.2014 16:00 23,1 C 44 % 1010,3 hPa 0,0 l/m 5,3 km/h (1 Bft) S 0,95 h 0,330 mm 1,9 UV-I 226 W/m 10,2 C 23,0 C 8,8 km/h (2 Bft)
28.06.2014 17:00 21,0 C 58 % 1010,4 hPa 0,2 l/m 8,9 km/h (2 Bft) NW 0,83 h 0,203 mm 0,9 UV-I 93 W/m 12,2 C 20,1 C 13,5 km/h (3 Bft)
28.06.2014 18:00 18,0 C 81 % 1010,8 hPa 0,4 l/m 4,4 km/h (1 Bft) N-NW 0,63 h 0,102 mm 0,5 UV-I 61 W/m 14,6 C 17,8 C 7,5 km/h (2 Bft)
28.06.2014 19:00 16,9 C 88 % 1010,1 hPa 0,0 l/m 1,4 km/h (1 Bft) O-NO 0,37 h 0,051 mm 0,0 UV-I 46 W/m 14,8 C 16,9 C 3,1 km/h (1 Bft)
28.06.2014 20:00 16,8 C 86 % 1009,3 hPa 0,0 l/m 0,6 km/h (0 Bft) O-SO 0,05 h 0,025 mm 0,0 UV-I 26 W/m 14,5 C 16,8 C 1,9 km/h (1 Bft)
28.06.2014 21:00 16,1 C 88 % 1008,8 hPa 0,0 l/m 2,3 km/h (1 Bft) O 0,00 h 0,025 mm 0,0 UV-I 5 W/m 14,2 C 16,1 C 4,4 km/h (1 Bft)
28.06.2014 22:00 15,6 C 88 % 1008,5 hPa 0,0 l/m 0,6 km/h (0 Bft) O 0,00 h 0,000 mm 0,0 UV-I 0 W/m 13,7 C 15,6 C 1,6 km/h (1 Bft)
28.06.2014 23:00 14,9 C 92 % 1008,5 hPa 0,0 l/m 0,0 km/h (0 Bft) N 0,00 h 0,000 mm 0,0 UV-I 0 W/m 13,5 C 14,9 C 0,2 km/h (0 Bft)
29.06.2014 00:00 15,2 C 93 % 1009,1 hPa 1,0 l/m 4,1 km/h (1 Bft) W-NW 0,00 h 0,000 mm 0,0 UV-I 0 W/m 14,0 C 15,0 C 6,2 km/h (2 Bft)
29.06.2014 01:00 14,7 C 94 % 1008,8 hPa 0,4 l/m 2,4 km/h (1 Bft) W-NW 0,00 h 0,000 mm 0,0 UV-I 0 W/m 13,8 C 14,7 C 4,3 km/h (1 Bft)
29.06.2014 02:00 14,8 C 94 % 1008,3 hPa 0,0 l/m 5,7 km/h (1 Bft) S 0,00 h 0,000 mm 0,0 UV-I 0 W/m 13,9 C 14,4 C 8,9 km/h (2 Bft)
29.06.2014 03:00 14,8 C 94 % 1007,7 hPa 0,0 l/m 6,5 km/h (2 Bft) S 0,00 h 0,000 mm 0,0 UV-I 0 W/m 13,8 C 14,4 C 10,1 km/h (2 Bft)
29.06.2014 04:00 14,8 C 93 % 1007,3 hPa 0,0 l/m 7,4 km/h (2 Bft) S 0,00 h 0,000 mm 0,0 UV-I 0 W/m 13,7 C 14,1 C 11,3 km/h (2 Bft)
29.06.2014 05:00 14,7 C 93 % 1006,4 hPa 0,0 l/m 5,3 km/h (1 Bft) S 0,00 h 0,000 mm 0,0 UV-I 14 W/m 13,5 C 14,6 C 8,4 km/h (2 Bft)
29.06.2014 06:00 14,9 C 92 % 1006,3 hPa 0,0 l/m 5,2 km/h (1 Bft) S 0,42 h 0,000 mm 0,0 UV-I 49 W/m 13,6 C 14,8 C 8,8 km/h (2 Bft)
29.06.2014 07:00 15,4 C 90 % 1006,3 hPa 0,0 l/m 7,2 km/h (2 Bft) S 0,93 h 0,025 mm 0,5 UV-I 71 W/m 13,9 C 14,8 C 11,8 km/h (2 Bft)
29.06.2014 08:00 16,1 C 88 % 1006,6 hPa 0,0 l/m 8,9 km/h (2 Bft) S 1,00 h 0,051 mm 0,8 UV-I 144 W/m 14,2 C 14,8 C 14,0 km/h (3 Bft)
29.06.2014 09:00 16,2 C 90 % 1006,8 hPa 0,4 l/m 10,8 km/h (2 Bft) S 0,98 h 0,102 mm 1,2 UV-I 174 W/m 14,6 C 14,2 C 16,6 km/h (3 Bft)
29.06.2014 10:00 16,1 C 92 % 1006,8 hPa 0,6 l/m 10,1 km/h (2 Bft) S 1,02 h 0,102 mm 1,4 UV-I 175 W/m 14,7 C 14,3 C 15,6 km/h (3 Bft)
29.06.2014 11:00 16,2 C 92 % 1007,0 hPa 0,2 l/m 10,6 km/h (2 Bft) S 1,00 h 0,102 mm 1,5 UV-I 180 W/m 14,9 C 14,3 C 16,8 km/h (3 Bft)
29.06.2014 12:00 16,0 C 92 % 1006,9 hPa 0,6 l/m 10,0 km/h (2 Bft) S 1,00 h 0,102 mm 1,3 UV-I 149 W/m 14,8 C 14,3 C 15,9 km/h (3 Bft)
29.06.2014 13:00 16,2 C 92 % 1006,9 hPa 0,2 l/m 12,2 km/h (2 Bft) S 1,00 h 0,076 mm 1,7 UV-I 200 W/m 14,8 C 13,6 C 19,6 km/h (3 Bft)
29.06.2014 14:00 16,5 C 89 % 1007,0 hPa 0,0 l/m 13,3 km/h (3 Bft) S 1,00 h 0,127 mm 1,5 UV-I 186 W/m 14,6 C 13,6 C 21,0 km/h (4 Bft)
29.06.2014 15:00 16,2 C 90 % 1007,2 hPa 0,2 l/m 11,0 km/h (2 Bft) S 1,00 h 0,127 mm 1,4 UV-I 162 W/m 14,6 C 14,2 C 17,1 km/h (3 Bft)
29.06.2014 16:00 15,2 C 91 % 1008,0 hPa 1,0 l/m 7,7 km/h (2 Bft) W-SW 0,90 h 0,102 mm 0,6 UV-I 67 W/m 13,7 C 14,0 C 12,2 km/h (2 Bft)
29.06.2014 17:00 15,1 C 92 % 1008,2 hPa 0,0 l/m 5,0 km/h (1 Bft) SW 1,00 h 0,051 mm 0,8 UV-I 121 W/m 13,8 C 15,0 C 8,4 km/h (2 Bft)
29.06.2014 18:00 15,1 C 91 % 1008,2 hPa 0,0 l/m 6,6 km/h (2 Bft) W-SW 1,00 h 0,076 mm 0,6 UV-I 83 W/m 13,6 C 14,7 C 10,2 km/h (2 Bft)
29.06.2014 19:00 15,0 C 89 % 1008,5 hPa 0,0 l/m 5,0 km/h (1 Bft) W 0,52 h 0,051 mm 0,5 UV-I 57 W/m 13,2 C 14,8 C 8,1 km/h (2 Bft)
29.06.2014 20:00 14,6 C 92 % 1008,8 hPa 1,0 l/m 4,6 km/h (1 Bft) W-SW 0,00 h 0,025 mm 0,0 UV-I 19 W/m 13,4 C 14,6 C 7,4 km/h (2 Bft)
29.06.2014 21:00 13,3 C 93 % 1009,2 hPa 1,0 l/m 3,1 km/h (1 Bft) W-SW 0,00 h 0,000 mm 0,0 UV-I 0 W/m 12,1 C 13,1 C 5,4 km/h (1 Bft)
29.06.2014 22:00 12,8 C 95 % 1009,7 hPa 0,0 l/m 0,0 km/h (0 Bft) N 0,00 h 0,000 mm 0,0 UV-I 0 W/m 12,1 C 12,8 C 0,0 km/h (0 Bft)
29.06.2014 23:00 12,8 C 96 % 1009,9 hPa 0,2 l/m 0,3 km/h (0 Bft) SW 0,00 h 0,000 mm 0,0 UV-I 0 W/m 12,2 C 12,8 C 0,9 km/h (0 Bft)
Min-Datum _ 23.06.14 27.06.14 29.06.14 - 23.06.14 - - - - - 27.06.14 23.06.14 23.06.14
_ Min-Zeit 08:49 16:09 06:47 - 00:00 - - - - - 16:25 05:30 00:00
Minimum _ 0,0 C 25 % 1006,1 hPa - 0,0 km/h (0 Bft) - - - - - 3,0 C 5,0 C 0,0 km/h (0 Bft)
Max-Datum _ 28.06.14 25.06.14 23.06.14 25.06.14 25.06.14 - 28.06.14 23.06.14 25.06.14 28.06.14 29.06.14 28.06.14 25.06.14
_ Max-Zeit 15:07 05:58 06:13 10:41 16:21 - 12:29 15:00 13:28 14:45 11:01 15:05 16:21
Maximum _ 24,9 C 96 % 1021,2 hPa 5,8 l/m 27,4 km/h
N-NW (4 Bft)
- 0,07 h 0,584 mm 8,4 UV-I 1174 W/m 15,2 C 24,8 C 40,2 km/h
N-NW (6 Bft)
Durchschnitt _ 15,0 C 72 % 1013,6 hPa #16,6 l/m 4,3 km/h (1 Bft) N #87:23 h #23,359 mm 2,8 UV-I 292 W/m 9,3 C 14,6 C 7,1 km/h (2 Bft)